YFI weather

Fort Mackay / Firebag
Suncor Energy Site, Alberta, Canada

Public forecast

Using degrees Celsius for public forecast. Weather courtesy of forecast.io.

Closest aviation weather report (METAR) to Fort Mackay / Firebag

Closest report is Fort McMurray Airport, 38.2 nm (70.8 km) SSW. Retrieved 2020/06/01 22:00 UTC (48 minutes ago):

CYMM 012200Z AUTO 29015G21KT 9SM OVC035 14/07 A2968 RMK SLP061 DENSITY ALT 1600FT

Closest aviation forecast (TAF) to Fort Mackay / Firebag

Closest forecast is Fort McMurray Airport, 38.2 nm (70.8 km) SSW. Retrieved 2020/06/01 19:39 UTC (3 hours ago):

TAF CYMM 011838Z 0119/0207 27015G25KT P6SM OVC030 TEMPO 0119/0121 OVC015 FM012100 29015KT P6SM BKN030 BECMG 0202/0204 30008KT RMK FCST BASED ON AUTO OBS NXT FCST BY 020100Z